sensor_id;sensor_type;location;lat;lon;timestamp;pressure;altitude;pressure_sealevel;temperature;humidity
48200;BME280;33990;44.602;10.976;2022-12-18T00:03:45;102197.47;;;18.76;52.25
48200;BME280;33990;44.602;10.976;2022-12-18T00:06:14;102210.66;;;18.79;52.31
48200;BME280;33990;44.602;10.976;2022-12-18T00:08:43;102213.47;;;18.77;52.09
48200;BME280;33990;44.602;10.976;2022-12-18T00:11:14;102209.81;;;18.78;53.09
48200;BME280;33990;44.602;10.976;2022-12-18T00:13:42;102220.53;;;18.78;51.04
48200;BME280;33990;44.602;10.976;2022-12-18T00:16:12;102237.50;;;18.79;53.09
48200;BME280;33990;44.602;10.976;2022-12-18T00:18:41;102240.28;;;18.77;53.98
48200;BME280;33990;44.602;10.976;2022-12-18T00:21:10;102247.38;;;18.78;53.70
48200;BME280;33990;44.602;10.976;2022-12-18T00:23:39;102245.66;;;18.77;53.99
48200;BME280;33990;44.602;10.976;2022-12-18T00:26:12;102260.91;;;18.77;54.28
48200;BME280;33990;44.602;10.976;2022-12-18T00:28:39;102265.41;;;18.76;54.11
48200;BME280;33990;44.602;10.976;2022-12-18T00:31:09;102265.41;;;18.76;53.85
48200;BME280;33990;44.602;10.976;2022-12-18T00:33:37;102256.50;;;18.76;53.76
48200;BME280;33990;44.602;10.976;2022-12-18T00:38:37;102269.91;;;18.76;53.58
48200;BME280;33990;44.602;10.976;2022-12-18T00:41:07;102265.47;;;18.75;53.29
48200;BME280;33990;44.602;10.976;2022-12-18T00:43:36;102265.56;;;18.73;53.11
48200;BME280;33990;44.602;10.976;2022-12-18T00:46:04;102261.06;;;18.74;53.14
48200;BME280;33990;44.602;10.976;2022-12-18T00:48:32;102271.81;;;18.74;53.32
48200;BME280;33990;44.602;10.976;2022-12-18T00:50:59;102266.44;;;18.74;53.11
48200;BME280;33990;44.602;10.976;2022-12-18T00:53:27;102275.34;;;18.74;52.95
48200;BME280;33990;44.602;10.976;2022-12-18T00:55:55;102275.34;;;18.74;52.88
48200;BME280;33990;44.602;10.976;2022-12-18T00:58:23;102274.47;;;18.74;52.50
48200;BME280;33990;44.602;10.976;2022-12-18T01:00:50;102277.16;;;18.74;52.71
48200;BME280;33990;44.602;10.976;2022-12-18T01:03:17;102271.81;;;18.74;52.69
48200;BME280;33990;44.602;10.976;2022-12-18T01:05:45;102274.47;;;18.74;52.24
48200;BME280;33990;44.602;10.976;2022-12-18T01:08:12;102268.38;;;18.72;52.46
48200;BME280;33990;44.602;10.976;2022-12-18T01:10:43;102265.69;;;18.72;52.28
48200;BME280;33990;44.602;10.976;2022-12-18T01:13:11;102272.75;;;18.73;52.15
48200;BME280;33990;44.602;10.976;2022-12-18T01:15:38;102275.53;;;18.71;52.09
48200;BME280;33990;44.602;10.976;2022-12-18T01:18:10;102266.63;;;18.71;52.07
48200;BME280;33990;44.602;10.976;2022-12-18T01:20:37;102275.53;;;18.71;52.00
48200;BME280;33990;44.602;10.976;2022-12-18T01:23:05;102268.38;;;18.72;52.05
48200;BME280;33990;44.602;10.976;2022-12-18T01:25:35;102263.94;;;18.71;51.87
48200;BME280;33990;44.602;10.976;2022-12-18T01:28:03;102270.16;;;18.71;51.98
48200;BME280;33990;44.602;10.976;2022-12-18T01:30:31;102273.81;;;18.70;52.02
48200;BME280;33990;44.602;10.976;2022-12-18T01:32:59;102279.16;;;18.70;51.91
48200;BME280;33990;44.602;10.976;2022-12-18T01:35:26;102276.47;;;18.70;51.86
48200;BME280;33990;44.602;10.976;2022-12-18T01:37:54;102281.00;;;18.70;51.70
48200;BME280;33990;44.602;10.976;2022-12-18T01:40:22;102286.25;;;18.71;51.85
48200;BME280;33990;44.602;10.976;2022-12-18T01:42:52;102290.75;;;18.71;51.90
48200;BME280;33990;44.602;10.976;2022-12-18T01:45:24;102298.81;;;18.71;51.82
48200;BME280;33990;44.602;10.976;2022-12-18T01:50:30;102298.81;;;18.71;51.76
48200;BME280;33990;44.602;10.976;2022-12-18T01:53:03;102300.63;;;18.70;51.69
48200;BME280;33990;44.602;10.976;2022-12-18T01:55:38;102299.78;;;18.70;51.74
48200;BME280;33990;44.602;10.976;2022-12-18T01:58:07;102301.50;;;18.71;51.64
48200;BME280;33990;44.602;10.976;2022-12-18T02:00:34;102314.91;;;18.71;51.64
48200;BME280;33990;44.602;10.976;2022-12-18T02:03:02;102317.59;;;18.71;51.58
48200;BME280;33990;44.602;10.976;2022-12-18T02:08:15;102315.75;;;18.71;51.56
48200;BME280;33990;44.602;10.976;2022-12-18T02:18:56;102328.31;;;18.71;51.46
48200;BME280;33990;44.602;10.976;2022-12-18T02:21:36;102337.22;;;18.71;51.34
48200;BME280;33990;44.602;10.976;2022-12-18T02:24:37;102339.03;;;18.71;51.50
48200;BME280;33990;44.602;10.976;2022-12-18T02:27:07;102346.16;;;18.72;51.34
48200;BME280;33990;44.602;10.976;2022-12-18T02:29:46;102342.59;;;18.71;51.38
48200;BME280;33990;44.602;10.976;2022-12-18T02:32:28;102346.22;;;18.70;51.30
48200;BME280;33990;44.602;10.976;2022-12-18T02:34:58;102358.69;;;18.71;51.31
48200;BME280;33990;44.602;10.976;2022-12-18T02:37:29;102358.69;;;18.71;51.26
48200;BME280;33990;44.602;10.976;2022-12-18T02:40:03;102362.34;;;18.70;51.32
48200;BME280;33990;44.602;10.976;2022-12-18T02:42:32;102371.25;;;18.71;51.40
48200;BME280;33990;44.602;10.976;2022-12-18T02:45:02;102375.75;;;18.70;51.37
48200;BME280;33990;44.602;10.976;2022-12-18T02:47:34;102377.56;;;18.70;51.32
48200;BME280;33990;44.602;10.976;2022-12-18T03:03:36;102380.25;;;18.70;51.51
48200;BME280;33990;44.602;10.976;2022-12-18T03:06:31;102383.78;;;18.70;51.19
48200;BME280;33990;44.602;10.976;2022-12-18T03:09:06;102387.41;;;18.69;51.57
48200;BME280;33990;44.602;10.976;2022-12-18T03:11:40;102383.78;;;18.70;51.34
48200;BME280;33990;44.602;10.976;2022-12-18T03:14:29;102382.03;;;18.69;51.38
48200;BME280;33990;44.602;10.976;2022-12-18T03:17:01;102386.53;;;18.69;51.32
48200;BME280;33990;44.602;10.976;2022-12-18T03:19:32;102382.03;;;18.69;51.17
48200;BME280;33990;44.602;10.976;2022-12-18T03:22:04;102386.53;;;18.69;51.14
48200;BME280;33990;44.602;10.976;2022-12-18T03:24:44;102392.78;;;18.69;51.20
48200;BME280;33990;44.602;10.976;2022-12-18T03:27:15;102385.69;;;18.68;51.26
48200;BME280;33990;44.602;10.976;2022-12-18T03:32:27;102388.28;;;18.70;51.13
48200;BME280;33990;44.602;10.976;2022-12-18T03:35:00;102392.78;;;18.69;51.12
48200;BME280;33990;44.602;10.976;2022-12-18T03:37:33;102390.97;;;18.70;51.11
48200;BME280;33990;44.602;10.976;2022-12-18T03:40:01;102392.78;;;18.69;50.94
48200;BME280;33990;44.602;10.976;2022-12-18T03:42:51;102397.28;;;18.69;50.93
48200;BME280;33990;44.602;10.976;2022-12-18T03:45:35;102398.13;;;18.69;50.94
48200;BME280;33990;44.602;10.976;2022-12-18T03:50:56;102399.97;;;18.69;51.00
48200;BME280;33990;44.602;10.976;2022-12-18T03:53:37;102402.56;;;18.70;50.95
48200;BME280;33990;44.602;10.976;2022-12-18T03:56:08;102406.19;;;18.69;51.02
48200;BME280;33990;44.602;10.976;2022-12-18T03:58:41;102407.06;;;18.70;51.15
48200;BME280;33990;44.602;10.976;2022-12-18T04:01:17;102407.06;;;18.70;51.00
48200;BME280;33990;44.602;10.976;2022-12-18T04:03:48;102404.41;;;18.70;50.95
48200;BME280;33990;44.602;10.976;2022-12-18T04:06:19;102405.31;;;18.69;50.94
48200;BME280;33990;44.602;10.976;2022-12-18T04:08:47;102410.63;;;18.70;51.07
48200;BME280;33990;44.602;10.976;2022-12-18T04:11:19;102414.16;;;18.71;51.19
48200;BME280;33990;44.602;10.976;2022-12-18T04:13:47;102421.34;;;18.70;51.04
48200;BME280;33990;44.602;10.976;2022-12-18T04:16:21;102422.22;;;18.71;50.96
48200;BME280;33990;44.602;10.976;2022-12-18T04:18:52;102423.06;;;18.71;51.12
48200;BME280;33990;44.602;10.976;2022-12-18T04:21:21;102431.13;;;18.71;51.07
48200;BME280;33990;44.602;10.976;2022-12-18T04:23:49;102443.66;;;18.71;51.07
48200;BME280;33990;44.602;10.976;2022-12-18T04:26:20;102444.53;;;18.71;51.08
48200;BME280;33990;44.602;10.976;2022-12-18T04:29:19;102458.91;;;18.70;51.01
48200;BME280;33990;44.602;10.976;2022-12-18T04:31:47;102466.00;;;18.71;51.08
48200;BME280;33990;44.602;10.976;2022-12-18T04:34:15;102476.72;;;18.71;51.08
48200;BME280;33990;44.602;10.976;2022-12-18T04:36:48;102477.69;;;18.70;50.91
48200;BME280;33990;44.602;10.976;2022-12-18T04:39:17;102469.63;;;18.70;50.99
48200;BME280;33990;44.602;10.976;2022-12-18T04:41:45;102483.06;;;18.70;50.90
48200;BME280;33990;44.602;10.976;2022-12-18T04:44:13;102483.91;;;18.71;50.79
48200;BME280;33990;44.602;10.976;2022-12-18T04:46:40;102484.78;;;18.71;50.82
48200;BME280;33990;44.602;10.976;2022-12-18T04:49:08;102491.97;;;18.71;50.84
48200;BME280;33990;44.602;10.976;2022-12-18T04:51:37;102496.41;;;18.72;50.61
48200;BME280;33990;44.602;10.976;2022-12-18T04:54:04;102491.03;;;18.72;50.71
48200;BME280;33990;44.602;10.976;2022-12-18T04:56:32;102498.19;;;18.71;50.65
48200;BME280;33990;44.602;10.976;2022-12-18T04:59:00;102503.56;;;18.71;50.53
48200;BME280;33990;44.602;10.976;2022-12-18T05:01:27;102508.84;;;18.73;50.64
48200;BME280;33990;44.602;10.976;2022-12-18T05:04:01;102507.13;;;18.72;50.44
48200;BME280;33990;44.602;10.976;2022-12-18T05:06:29;102502.69;;;18.71;50.50
48200;BME280;33990;44.602;10.976;2022-12-18T05:08:56;102501.75;;;18.72;50.46
48200;BME280;33990;44.602;10.976;2022-12-18T05:11:23;102498.19;;;18.71;50.38
48200;BME280;33990;44.602;10.976;2022-12-18T05:13:51;102504.50;;;18.70;50.39
48200;BME280;33990;44.602;10.976;2022-12-18T05:16:18;102513.41;;;18.71;50.36
48200;BME280;33990;44.602;10.976;2022-12-18T05:18:54;102517.94;;;18.70;50.37
48200;BME280;33990;44.602;10.976;2022-12-18T05:21:21;102525.91;;;18.72;50.39
48200;BME280;33990;44.602;10.976;2022-12-18T05:23:49;102520.59;;;18.70;50.28
48200;BME280;33990;44.602;10.976;2022-12-18T05:26:17;102534.88;;;18.71;50.31
48200;BME280;33990;44.602;10.976;2022-12-18T05:28:45;102542.06;;;18.70;50.39
48200;BME280;33990;44.602;10.976;2022-12-18T05:31:13;102545.63;;;18.71;50.27
48200;BME280;33990;44.602;10.976;2022-12-18T05:33:41;102546.56;;;18.70;50.23
48200;BME280;33990;44.602;10.976;2022-12-18T05:36:09;102549.16;;;18.71;50.30
48200;BME280;33990;44.602;10.976;2022-12-18T05:38:38;102551.84;;;18.71;50.39
48200;BME280;33990;44.602;10.976;2022-12-18T05:41:06;102550.97;;;18.71;50.02
48200;BME280;33990;44.602;10.976;2022-12-18T05:43:35;102561.72;;;18.71;50.22
48200;BME280;33990;44.602;10.976;2022-12-18T05:46:05;102558.16;;;18.70;50.24
48200;BME280;33990;44.602;10.976;2022-12-18T05:48:33;102560.84;;;18.70;50.31
48200;BME280;33990;44.602;10.976;2022-12-18T05:51:06;102562.56;;;18.71;50.18
48200;BME280;33990;44.602;10.976;2022-12-18T05:53:35;102566.22;;;18.70;50.28
48200;BME280;33990;44.602;10.976;2022-12-18T05:56:06;102572.44;;;18.71;50.19
48200;BME280;33990;44.602;10.976;2022-12-18T05:58:34;102575.13;;;18.71;50.13
48200;BME280;33990;44.602;10.976;2022-12-18T06:01:18;102576.94;;;18.70;50.03
48200;BME280;33990;44.602;10.976;2022-12-18T06:03:46;102583.19;;;18.71;50.08
48200;BME280;33990;44.602;10.976;2022-12-18T06:06:15;102585.00;;;18.70;50.00
48200;BME280;33990;44.602;10.976;2022-12-18T06:08:43;102582.31;;;18.70;49.89
48200;BME280;33990;44.602;10.976;2022-12-18T06:11:16;102582.31;;;18.70;49.98
48200;BME280;33990;44.602;10.976;2022-12-18T06:13:44;102568.91;;;18.70;49.92
48200;BME280;33990;44.602;10.976;2022-12-18T06:16:12;102572.44;;;18.71;49.93
48200;BME280;33990;44.602;10.976;2022-12-18T06:18:40;102575.19;;;18.69;49.92
48200;BME280;33990;44.602;10.976;2022-12-18T06:21:07;102583.19;;;18.71;49.84
48200;BME280;33990;44.602;10.976;2022-12-18T06:23:34;102585.00;;;18.70;49.91
48200;BME280;33990;44.602;10.976;2022-12-18T06:26:08;102599.28;;;18.71;49.84
48200;BME280;33990;44.602;10.976;2022-12-18T06:28:35;102603.78;;;18.70;50.00
48200;BME280;33990;44.602;10.976;2022-12-18T06:31:04;102617.19;;;18.70;49.83
48200;BME280;33990;44.602;10.976;2022-12-18T06:33:32;102616.31;;;18.70;49.84
48200;BME280;33990;44.602;10.976;2022-12-18T06:36:02;102617.19;;;18.70;50.02
48200;BME280;33990;44.602;10.976;2022-12-18T06:38:31;102622.56;;;18.70;49.89
48200;BME280;33990;44.602;10.976;2022-12-18T06:41:00;102627.94;;;18.70;49.90
48200;BME280;33990;44.602;10.976;2022-12-18T06:43:27;102628.78;;;18.71;49.79
48200;BME280;33990;44.602;10.976;2022-12-18T06:45:59;102632.44;;;18.70;49.95
48200;BME280;33990;44.602;10.976;2022-12-18T06:48:27;102639.50;;;18.71;49.76
48200;BME280;33990;44.602;10.976;2022-12-18T06:50:54;102642.19;;;18.71;49.92
48200;BME280;33990;44.602;10.976;2022-12-18T06:53:22;102640.47;;;18.70;49.83
48200;BME280;33990;44.602;10.976;2022-12-18T06:55:50;102635.97;;;18.70;49.86
48200;BME280;33990;44.602;10.976;2022-12-18T06:58:17;102644.03;;;18.70;49.83
48200;BME280;33990;44.602;10.976;2022-12-18T07:00:45;102639.56;;;18.69;49.90
48200;BME280;33990;44.602;10.976;2022-12-18T07:03:12;102652.06;;;18.70;49.94
48200;BME280;33990;44.602;10.976;2022-12-18T07:05:40;102657.44;;;18.70;49.91
48200;BME280;33990;44.602;10.976;2022-12-18T07:08:08;102661.94;;;18.70;49.91
48200;BME280;33990;44.602;10.976;2022-12-18T07:10:42;102664.63;;;18.70;49.91
48200;BME280;33990;44.602;10.976;2022-12-18T07:13:15;102662.81;;;18.70;49.95
48200;BME280;33990;44.602;10.976;2022-12-18T07:15:44;102669.88;;;18.71;49.86
48200;BME280;33990;44.602;10.976;2022-12-18T07:18:11;102682.44;;;18.71;50.04
48200;BME280;33990;44.602;10.976;2022-12-18T07:20:39;102679.81;;;18.69;49.94
48200;BME280;33990;44.602;10.976;2022-12-18T07:23:06;102685.13;;;18.71;49.96
48200;BME280;33990;44.602;10.976;2022-12-18T07:25:35;102675.34;;;18.70;50.04
48200;BME280;33990;44.602;10.976;2022-12-18T07:28:04;102683.31;;;18.71;49.97
48200;BME280;33990;44.602;10.976;2022-12-18T07:30:31;102686.09;;;18.70;49.96
48200;BME280;33990;44.602;10.976;2022-12-18T07:32:58;102675.25;;;18.71;49.99
48200;BME280;33990;44.602;10.976;2022-12-18T07:35:26;102676.22;;;18.70;49.89
48200;BME280;33990;44.602;10.976;2022-12-18T07:37:53;102684.19;;;18.72;49.99
48200;BME280;33990;44.602;10.976;2022-12-18T07:40:20;102686.94;;;18.70;49.83
48200;BME280;33990;44.602;10.976;2022-12-18T07:42:48;102691.34;;;18.71;49.66
48200;BME280;33990;44.602;10.976;2022-12-18T07:45:15;102689.63;;;18.70;49.76
48200;BME280;33990;44.602;10.976;2022-12-18T07:47:42;102702.09;;;18.71;49.87
48200;BME280;33990;44.602;10.976;2022-12-18T07:50:10;102703.91;;;18.71;49.99
48200;BME280;33990;44.602;10.976;2022-12-18T07:52:37;102702.09;;;18.71;49.77
48200;BME280;33990;44.602;10.976;2022-12-18T07:55:05;102705.66;;;18.72;49.76
48200;BME280;33990;44.602;10.976;2022-12-18T07:57:33;102702.09;;;18.71;49.95
48200;BME280;33990;44.602;10.976;2022-12-18T08:00:17;102698.53;;;18.71;49.82
48200;BME280;33990;44.602;10.976;2022-12-18T08:02:44;102707.44;;;18.71;49.77
48200;BME280;33990;44.602;10.976;2022-12-18T08:05:12;102706.59;;;18.71;49.83
48200;BME280;33990;44.602;10.976;2022-12-18T08:07:40;102703.91;;;18.71;49.78
48200;BME280;33990;44.602;10.976;2022-12-18T08:10:08;102710.13;;;18.71;49.64
48200;BME280;33990;44.602;10.976;2022-12-18T08:12:35;102714.63;;;18.71;49.64
48200;BME280;33990;44.602;10.976;2022-12-18T08:15:03;102726.22;;;18.71;49.72
48200;BME280;33990;44.602;10.976;2022-12-18T08:17:30;102739.66;;;18.71;49.76
48200;BME280;33990;44.602;10.976;2022-12-18T08:19:58;102738.78;;;18.71;49.71
48200;BME280;33990;44.602;10.976;2022-12-18T08:22:25;102745.91;;;18.72;49.50
48200;BME280;33990;44.602;10.976;2022-12-18T08:24:53;102748.66;;;18.70;49.51
48200;BME280;33990;44.602;10.976;2022-12-18T08:27:20;102752.19;;;18.71;49.67
48200;BME280;33990;44.602;10.976;2022-12-18T08:29:56;102762.06;;;18.70;49.82
48200;BME280;33990;44.602;10.976;2022-12-18T08:32:25;102764.69;;;18.72;49.70
48200;BME280;33990;44.602;10.976;2022-12-18T08:34:53;102770.06;;;18.72;49.56
48200;BME280;33990;44.602;10.976;2022-12-18T08:37:20;102770.97;;;18.71;49.63
48200;BME280;33990;44.602;10.976;2022-12-18T08:39:48;102778.97;;;18.72;49.16
48200;BME280;33990;44.602;10.976;2022-12-18T08:42:15;102788.84;;;18.72;49.23
48200;BME280;33990;44.602;10.976;2022-12-18T08:45:02;102786.06;;;18.73;49.25
48200;BME280;33990;44.602;10.976;2022-12-18T08:47:29;102792.28;;;18.74;49.04
48200;BME280;33990;44.602;10.976;2022-12-18T08:49:57;102797.66;;;18.74;48.99
48200;BME280;33990;44.602;10.976;2022-12-18T08:52:24;102805.72;;;18.74;49.62
48200;BME280;33990;44.602;10.976;2022-12-18T08:54:51;102814.63;;;18.74;49.56
48200;BME280;33990;44.602;10.976;2022-12-18T08:57:19;102804.75;;;18.75;49.57
48200;BME280;33990;44.602;10.976;2022-12-18T08:59:46;102813.59;;;18.77;49.52
48200;BME280;33990;44.602;10.976;2022-12-18T09:02:13;102808.25;;;18.77;49.49
48200;BME280;33990;44.602;10.976;2022-12-18T09:04:41;102811.78;;;18.77;48.65
48200;BME280;33990;44.602;10.976;2022-12-18T09:07:08;102818.88;;;18.78;48.80
48200;BME280;33990;44.602;10.976;2022-12-18T09:09:36;102826.88;;;18.80;48.28
48200;BME280;33990;44.602;10.976;2022-12-18T09:12:03;102822.38;;;18.81;49.10
48200;BME280;33990;44.602;10.976;2022-12-18T09:14:30;102827.63;;;18.82;48.23
48200;BME280;33990;44.602;10.976;2022-12-18T09:16:58;102828.50;;;18.83;48.70
48200;BME280;33990;44.602;10.976;2022-12-18T09:19:26;102824.88;;;18.84;48.34
48200;BME280;33990;44.602;10.976;2022-12-18T09:21:53;102819.50;;;18.84;48.02
48200;BME280;33990;44.602;10.976;2022-12-18T09:24:21;102823.94;;;18.85;48.09
48200;BME280;33990;44.602;10.976;2022-12-18T09:26:48;102833.72;;;18.86;47.96
48200;BME280;33990;44.602;10.976;2022-12-18T09:29:24;102833.72;;;18.86;47.78
48200;BME280;33990;44.602;10.976;2022-12-18T09:31:51;102831.03;;;18.86;47.91
48200;BME280;33990;44.602;10.976;2022-12-18T09:34:19;102827.41;;;18.87;47.74
48200;BME280;33990;44.602;10.976;2022-12-18T09:36:48;102832.75;;;18.87;47.59
48200;BME280;33990;44.602;10.976;2022-12-18T09:39:16;102824.72;;;18.87;47.48
48200;BME280;33990;44.602;10.976;2022-12-18T09:41:52;102829.13;;;18.88;47.02
48200;BME280;33990;44.602;10.976;2022-12-18T09:44:34;102824.72;;;18.87;47.53
48200;BME280;33990;44.602;10.976;2022-12-18T09:47:13;102823.75;;;18.88;47.40
48200;BME280;33990;44.602;10.976;2022-12-18T09:49:47;102824.66;;;18.88;47.68
48200;BME280;33990;44.602;10.976;2022-12-18T09:52:34;102840.66;;;18.90;47.17
48200;BME280;33990;44.602;10.976;2022-12-18T09:55:22;102827.34;;;18.88;46.51
48200;BME280;33990;44.602;10.976;2022-12-18T09:57:55;102816.59;;;18.88;47.13
48200;BME280;33990;44.602;10.976;2022-12-18T10:00:25;102809.41;;;18.89;47.95
48200;BME280;33990;44.602;10.976;2022-12-18T10:02:58;102812.88;;;18.91;48.02
48200;BME280;33990;44.602;10.976;2022-12-18T10:05:57;102811.91;;;18.92;47.66
48200;BME280;33990;44.602;10.976;2022-12-18T10:08:59;102804.81;;;18.91;47.54
48200;BME280;33990;44.602;10.976;2022-12-18T10:11:43;102808.38;;;18.91;45.67
48200;BME280;33990;44.602;10.976;2022-12-18T10:22:57;102804.81;;;18.91;45.15
48200;BME280;33990;44.602;10.976;2022-12-18T10:28:14;102803.94;;;18.90;44.53
48200;BME280;33990;44.602;10.976;2022-12-18T10:30:43;102803.19;;;18.88;43.78
48200;BME280;33990;44.602;10.976;2022-12-18T10:33:17;102796.00;;;18.89;44.77
48200;BME280;33990;44.602;10.976;2022-12-18T10:35:45;102800.50;;;18.88;44.05
48200;BME280;33990;44.602;10.976;2022-12-18T10:51:26;102788.88;;;18.88;44.80
48200;BME280;33990;44.602;10.976;2022-12-18T10:56:33;102784.22;;;18.91;42.77
48200;BME280;33990;44.602;10.976;2022-12-18T10:59:12;102785.25;;;18.89;41.79
48200;BME280;33990;44.602;10.976;2022-12-18T11:04:29;102791.97;;;18.80;42.93
48200;BME280;33990;44.602;10.976;2022-12-18T11:09:32;102787.47;;;18.81;44.73
48200;BME280;33990;44.602;10.976;2022-12-18T11:12:05;102790.94;;;18.83;44.60
48200;BME280;33990;44.602;10.976;2022-12-18T11:14:44;102790.94;;;18.83;44.39
48200;BME280;33990;44.602;10.976;2022-12-18T11:20:03;102781.88;;;18.85;45.07
48200;BME280;33990;44.602;10.976;2022-12-18T11:22:35;102793.38;;;18.87;45.11
48200;BME280;33990;44.602;10.976;2022-12-18T11:25:06;102788.88;;;18.88;44.90
48200;BME280;33990;44.602;10.976;2022-12-18T11:28:05;102796.06;;;18.87;45.00
48200;BME280;33990;44.602;10.976;2022-12-18T11:36:57;102790.44;;;18.92;45.39
48200;BME280;33990;44.602;10.976;2022-12-18T11:42:22;102784.06;;;18.94;45.76
48200;BME280;33990;44.602;10.976;2022-12-18T11:44:54;102791.16;;;18.95;45.72
48200;BME280;33990;44.602;10.976;2022-12-18T11:47:37;102792.97;;;18.95;45.11
48200;BME280;33990;44.602;10.976;2022-12-18T11:53:29;102789.41;;;18.94;46.06
48200;BME280;33990;44.602;10.976;2022-12-18T12:01:23;102762.53;;;18.96;46.00
48200;BME280;33990;44.602;10.976;2022-12-18T12:15:50;102756.19;;;18.97;44.62
48200;BME280;33990;44.602;10.976;2022-12-18T12:18:53;102761.56;;;18.97;45.83
48200;BME280;33990;44.602;10.976;2022-12-18T12:21:47;102759.84;;;18.96;45.64
48200;BME280;33990;44.602;10.976;2022-12-18T12:27:13;102754.28;;;18.99;46.55
48200;BME280;33990;44.602;10.976;2022-12-18T12:40:35;102759.59;;;19.00;46.64
48200;BME280;33990;44.602;10.976;2022-12-18T12:43:32;102769.25;;;19.03;46.64
48200;BME280;33990;44.602;10.976;2022-12-18T12:46:49;102764.69;;;19.05;46.90
48200;BME280;33990;44.602;10.976;2022-12-18T12:49:20;102763.84;;;19.05;46.90
48200;BME280;33990;44.602;10.976;2022-12-18T12:51:58;102771.88;;;19.05;47.11
48200;BME280;33990;44.602;10.976;2022-12-18T12:54:28;102770.94;;;19.06;46.93
48200;BME280;33990;44.602;10.976;2022-12-18T13:05:30;102772.81;;;19.03;47.54
48200;BME280;33990;44.602;10.976;2022-12-18T13:08:09;102776.41;;;19.04;47.37
48200;BME280;33990;44.602;10.976;2022-12-18T13:10:39;102767.44;;;19.03;47.18
48200;BME280;33990;44.602;10.976;2022-12-18T13:13:12;102762.97;;;19.04;47.27
48200;BME280;33990;44.602;10.976;2022-12-18T13:16:04;102759.38;;;19.03;47.57
48200;BME280;33990;44.602;10.976;2022-12-18T13:18:33;102764.69;;;19.05;47.76
48200;BME280;33990;44.602;10.976;2022-12-18T13:21:23;102770.94;;;19.06;47.48
48200;BME280;33990;44.602;10.976;2022-12-18T13:23:51;102767.28;;;19.07;47.93
48200;BME280;33990;44.602;10.976;2022-12-18T13:28:54;102764.69;;;19.05;47.76
48200;BME280;33990;44.602;10.976;2022-12-18T13:34:16;102764.59;;;19.07;48.07
48200;BME280;33990;44.602;10.976;2022-12-18T13:39:43;102762.88;;;19.06;48.07
48200;BME280;33990;44.602;10.976;2022-12-18T13:48:26;102762.78;;;19.07;47.56
48200;BME280;33990;44.602;10.976;2022-12-18T13:51:03;102759.16;;;19.08;47.74
48200;BME280;33990;44.602;10.976;2022-12-18T13:56:26;102755.59;;;19.08;47.60
48200;BME280;33990;44.602;10.976;2022-12-18T14:04:28;102754.72;;;19.07;47.47
48200;BME280;33990;44.602;10.976;2022-12-18T14:07:09;102756.50;;;19.08;47.32
48200;BME280;33990;44.602;10.976;2022-12-18T14:09:42;102755.53;;;19.09;47.28
48200;BME280;33990;44.602;10.976;2022-12-18T14:12:24;102759.16;;;19.08;47.25
48200;BME280;33990;44.602;10.976;2022-12-18T14:17:57;102764.53;;;19.08;47.12
48200;BME280;33990;44.602;10.976;2022-12-18T14:20:27;102769.91;;;19.08;46.77
48200;BME280;33990;44.602;10.976;2022-12-18T14:22:56;102774.31;;;19.09;46.85
48200;BME280;33990;44.602;10.976;2022-12-18T14:25:30;102782.38;;;19.09;47.11
48200;BME280;33990;44.602;10.976;2022-12-18T14:33:14;102778.81;;;19.09;46.68
48200;BME280;33990;44.602;10.976;2022-12-18T14:36:03;102769.91;;;19.08;47.47
48200;BME280;33990;44.602;10.976;2022-12-18T14:41:10;102775.28;;;19.08;46.52
48200;BME280;33990;44.602;10.976;2022-12-18T14:43:41;102761.84;;;19.08;46.67
48200;BME280;33990;44.602;10.976;2022-12-18T14:46:38;102767.22;;;19.08;46.92
48200;BME280;33990;44.602;10.976;2022-12-18T14:49:23;102769.91;;;19.08;46.48
48200;BME280;33990;44.602;10.976;2022-12-18T14:51:54;102775.28;;;19.08;46.31
48200;BME280;33990;44.602;10.976;2022-12-18T14:54:23;102775.28;;;19.08;46.26
48200;BME280;33990;44.602;10.976;2022-12-18T14:57:14;102771.63;;;19.09;46.23
48200;BME280;33990;44.602;10.976;2022-12-18T14:59:47;102776.13;;;19.09;46.05
48200;BME280;33990;44.602;10.976;2022-12-18T15:02:26;102771.63;;;19.09;46.55
48200;BME280;33990;44.602;10.976;2022-12-18T15:07:50;102775.28;;;19.08;46.25
48200;BME280;33990;44.602;10.976;2022-12-18T15:10:26;102784.09;;;19.10;46.23
48200;BME280;33990;44.602;10.976;2022-12-18T15:23:35;102777.16;;;19.06;46.69
48200;BME280;33990;44.602;10.976;2022-12-18T15:26:08;102778.88;;;19.07;46.51
48200;BME280;33990;44.602;10.976;2022-12-18T15:28:38;102785.13;;;19.08;46.73
48200;BME280;33990;44.602;10.976;2022-12-18T15:33:44;102795.00;;;19.07;46.92
48200;BME280;33990;44.602;10.976;2022-12-18T15:36:15;102800.38;;;19.07;46.78
48200;BME280;33990;44.602;10.976;2022-12-18T15:38:53;102798.53;;;19.08;47.32
48200;BME280;33990;44.602;10.976;2022-12-18T15:41:32;102807.50;;;19.08;47.42
48200;BME280;33990;44.602;10.976;2022-12-18T15:44:15;102807.50;;;19.08;47.78
48200;BME280;33990;44.602;10.976;2022-12-18T15:46:47;102809.28;;;19.08;47.89
48200;BME280;33990;44.602;10.976;2022-12-18T15:49:15;102818.22;;;19.08;47.80
48200;BME280;33990;44.602;10.976;2022-12-18T15:51:42;102818.22;;;19.08;49.01
48200;BME280;33990;44.602;10.976;2022-12-18T15:54:13;102812.88;;;19.08;48.84
48200;BME280;33990;44.602;10.976;2022-12-18T15:56:43;102811.97;;;19.08;48.76
48200;BME280;33990;44.602;10.976;2022-12-18T15:59:29;102819.09;;;19.09;48.97